createdAt,value
2022-11-06T00:09:41.646Z,99.31
2022-11-06T00:19:47.305Z,99.15
2022-11-06T00:29:53.032Z,99.06
2022-11-06T00:39:59.585Z,98.77
2022-11-06T00:50:05.522Z,98.37
2022-11-06T01:00:13.931Z,98.19
2022-11-06T01:10:19.701Z,98.32
2022-11-06T01:20:25.641Z,98.36
2022-11-06T01:30:31.372Z,98.87
2022-11-06T01:40:44.999Z,98.85
2022-11-06T01:50:53.842Z,99.05
2022-11-06T02:00:59.615Z,99.10
2022-11-06T02:11:05.647Z,99.07
2022-11-06T02:21:33.825Z,99.39
2022-11-06T02:31:43.517Z,99.52
2022-11-06T02:41:51.073Z,99.82
2022-11-06T02:52:01.369Z,99.91
2022-11-06T03:02:11.515Z,100.00
2022-11-06T03:12:26.249Z,99.93
2022-11-06T03:22:37.008Z,100.00
2022-11-06T03:32:47.919Z,99.93
2022-11-06T03:42:58.248Z,99.93
2022-11-06T03:53:10.926Z,100.00
2022-11-06T04:03:23.449Z,99.96
2022-11-06T04:13:48.747Z,100.00
2022-11-06T04:24:25.404Z,99.87
2022-11-06T04:34:42.594Z,99.70
2022-11-06T04:44:51.888Z,99.89
2022-11-06T04:54:59.290Z,99.75
2022-11-06T05:05:05.241Z,99.92
2022-11-06T05:15:12.087Z,99.71
2022-11-06T05:25:17.670Z,99.97
2022-11-06T05:35:23.666Z,100.00
2022-11-06T05:45:29.618Z,99.98
2022-11-06T05:55:35.249Z,100.00
2022-11-06T06:05:40.888Z,100.00
2022-11-06T06:15:46.571Z,100.00
2022-11-06T06:25:52.195Z,100.00
2022-11-06T06:35:58.085Z,100.00
2022-11-06T06:46:06.000Z,99.99
2022-11-06T06:56:12.056Z,99.98
2022-11-06T07:06:18.935Z,99.72
2022-11-06T07:16:25.394Z,98.94
2022-11-06T07:26:31.060Z,98.29
2022-11-06T07:36:37.184Z,98.29
2022-11-06T07:46:42.801Z,97.59
2022-11-06T07:56:48.400Z,96.65
2022-11-06T08:06:54.037Z,96.57
2022-11-06T08:17:00.632Z,96.15
2022-11-06T08:27:06.410Z,95.84
2022-11-06T08:37:13.144Z,95.18
2022-11-06T08:47:18.848Z,94.63
2022-11-06T08:57:24.589Z,93.49
2022-11-06T09:07:30.351Z,92.38
2022-11-06T09:17:36.071Z,91.65
2022-11-06T09:27:48.732Z,90.59
2022-11-06T09:37:54.449Z,89.48
2022-11-06T09:48:05.450Z,89.42
2022-11-06T09:58:17.498Z,89.39
2022-11-06T10:08:27.082Z,88.91
2022-11-06T10:18:45.379Z,88.33
2022-11-06T10:29:16.483Z,88.22
2022-11-06T10:39:26.181Z,88.56
2022-11-06T10:49:41.900Z,88.20
2022-11-06T10:59:48.688Z,87.40
2022-11-06T11:09:54.602Z,86.04
2022-11-06T11:20:02.227Z,84.90
2022-11-06T11:30:20.580Z,84.08
2022-11-06T11:40:37.039Z,83.76
2022-11-06T11:50:42.860Z,83.18
2022-11-06T12:00:55.903Z,81.56
2022-11-06T12:11:06.440Z,80.73
2022-11-06T12:21:19.048Z,79.84
2022-11-06T12:31:37.144Z,79.38
2022-11-06T12:41:44.562Z,78.55
2022-11-06T12:51:59.774Z,78.41
2022-11-06T13:02:23.873Z,78.26
2022-11-06T13:12:35.346Z,78.50
2022-11-06T13:22:45.739Z,78.00
2022-11-06T13:33:06.435Z,77.16
2022-11-06T13:43:19.760Z,76.99
2022-11-06T13:53:35.190Z,76.24
2022-11-06T14:04:10.824Z,75.68
2022-11-06T14:14:27.229Z,75.46
2022-11-06T14:24:35.247Z,75.66
2022-11-06T14:34:42.190Z,76.11
2022-11-06T14:44:51.977Z,76.67
2022-11-06T14:55:05.259Z,76.88
2022-11-06T15:05:19.374Z,77.23
2022-11-06T15:15:26.024Z,77.86
2022-11-06T15:25:32.747Z,78.68
2022-11-06T15:35:38.686Z,79.66
2022-11-06T15:45:44.385Z,80.64
2022-11-06T15:55:56.786Z,81.41
2022-11-06T16:06:04.354Z,82.25
2022-11-06T16:16:28.716Z,82.37
2022-11-06T16:26:45.697Z,82.94
2022-11-06T16:36:59.565Z,83.35
2022-11-06T16:47:16.690Z,84.42
2022-11-06T16:57:25.145Z,85.41
2022-11-06T17:07:30.955Z,85.66
2022-11-06T17:17:40.104Z,86.16
2022-11-06T17:27:45.905Z,86.31
2022-11-06T17:37:51.719Z,87.54
2022-11-06T17:47:57.403Z,88.40
2022-11-06T17:58:03.011Z,89.27
2022-11-06T18:08:12.522Z,90.01
2022-11-06T18:18:18.446Z,91.09
2022-11-06T18:28:27.640Z,92.04
2022-11-06T18:38:33.634Z,92.61
2022-11-06T18:48:39.895Z,92.98
2022-11-06T18:58:46.051Z,93.33
2022-11-06T19:08:51.726Z,93.85
2022-11-06T19:29:08.659Z,94.83
2022-11-06T19:39:14.502Z,95.44
2022-11-06T19:49:20.204Z,95.72
2022-11-06T19:59:26.198Z,95.86
2022-11-06T20:09:34.364Z,96.58
2022-11-06T20:19:40.099Z,97.15
2022-11-06T20:29:45.772Z,97.75
2022-11-06T20:39:52.181Z,97.99
2022-11-06T20:50:00.544Z,98.10
2022-11-06T21:00:06.894Z,97.97
2022-11-06T21:10:13.416Z,98.33
2022-11-06T21:20:22.903Z,98.59
2022-11-06T21:30:28.859Z,98.96
2022-11-06T21:40:34.731Z,99.30
2022-11-06T21:50:40.425Z,99.81
2022-11-06T22:00:46.337Z,99.91
2022-11-06T22:10:52.174Z,100.00
2022-11-06T22:21:07.937Z,100.00
2022-11-06T22:31:14.705Z,100.00
2022-11-06T22:41:24.376Z,100.00
2022-11-06T22:51:32.784Z,100.00
2022-11-06T23:01:42.681Z,100.00
2022-11-06T23:11:49.619Z,100.00
2022-11-06T23:22:16.467Z,100.00
2022-11-06T23:32:22.758Z,100.00
2022-11-06T23:42:28.554Z,100.00
2022-11-06T23:52:34.512Z,100.00
